createdAt,value
2017-03-15T00:00:07.767Z,19.83
2017-03-15T00:01:19.512Z,19.13
2017-03-15T00:02:24.659Z,20.40
2017-03-15T00:03:31.011Z,17.97
2017-03-15T00:04:35.859Z,30.97
2017-03-15T00:05:40.589Z,17.95
2017-03-15T00:06:46.204Z,18.63
2017-03-15T00:07:51.938Z,20.90
2017-03-15T00:08:57.558Z,22.87
2017-03-15T00:10:02.908Z,20.07
2017-03-15T00:11:08.377Z,20.27
2017-03-15T00:12:13.142Z,18.10
2017-03-15T00:13:18.687Z,15.83
2017-03-15T00:14:24.267Z,20.45
2017-03-15T00:15:29.706Z,19.68
2017-03-15T00:16:34.475Z,20.15
2017-03-15T00:17:39.115Z,20.88
2017-03-15T00:18:44.618Z,21.27
2017-03-15T00:19:51.209Z,17.93
2017-03-15T00:20:55.861Z,16.12
2017-03-15T00:22:01.418Z,19.92
2017-03-15T00:23:06.160Z,19.72
2017-03-15T00:24:11.757Z,20.73
2017-03-15T00:25:16.395Z,18.00
2017-03-15T00:26:22.048Z,22.35
2017-03-15T00:27:28.214Z,19.33
2017-03-15T00:28:32.957Z,19.08
2017-03-15T00:29:38.374Z,20.68
2017-03-15T00:30:43.290Z,17.33
2017-03-15T00:31:48.778Z,18.42
2017-03-15T00:32:54.365Z,18.35
2017-03-15T00:33:59.907Z,17.77
2017-03-15T00:35:05.337Z,17.37
2017-03-15T00:36:10.954Z,20.57
2017-03-15T00:37:16.541Z,18.83
2017-03-15T00:38:21.966Z,19.30
2017-03-15T00:39:27.598Z,18.35
2017-03-15T00:40:32.414Z,18.43
2017-03-15T00:41:37.845Z,17.68
2017-03-15T00:42:42.632Z,18.13
2017-03-15T00:43:48.208Z,20.58
2017-03-15T00:44:53.007Z,21.90
2017-03-15T00:45:59.427Z,21.78
2017-03-15T00:47:04.210Z,17.60
2017-03-15T00:48:09.671Z,20.28
2017-03-15T00:49:15.213Z,19.55
2017-03-15T00:50:20.772Z,25.28
2017-03-15T00:51:25.446Z,25.00
2017-03-15T00:52:31.155Z,28.88
2017-03-15T00:53:37.510Z,25.75
2017-03-15T00:54:43.058Z,33.78
2017-03-15T00:55:47.778Z,27.40
2017-03-15T00:56:53.269Z,27.68
2017-03-15T00:57:57.969Z,32.45
2017-03-15T00:59:02.635Z,38.12
2017-03-15T01:00:07.438Z,29.47
2017-03-15T01:01:13.810Z,40.62
2017-03-15T01:02:18.682Z,25.48
2017-03-15T01:03:24.328Z,21.68
2017-03-15T01:04:29.842Z,22.93
2017-03-15T01:05:34.481Z,22.32
2017-03-15T01:06:39.195Z,21.22
2017-03-15T01:07:45.422Z,18.58
2017-03-15T01:08:51.097Z,22.48
2017-03-15T01:09:55.867Z,23.08
2017-03-15T01:11:02.248Z,19.02
2017-03-15T01:12:07.077Z,17.35
2017-03-15T01:13:18.290Z,19.23
2017-03-15T01:14:23.674Z,21.88
2017-03-15T01:15:29.218Z,20.17
2017-03-15T01:16:35.565Z,21.17
2017-03-15T01:17:41.177Z,18.40
2017-03-15T01:18:46.030Z,19.00
2017-03-15T01:19:51.592Z,18.75
2017-03-15T01:20:56.924Z,19.38
2017-03-15T01:22:01.733Z,19.15
2017-03-15T01:23:07.168Z,20.85
2017-03-15T01:24:12.033Z,18.48
2017-03-15T01:25:18.338Z,17.13
2017-03-15T01:26:23.187Z,21.97
2017-03-15T01:27:28.738Z,18.00
2017-03-15T01:28:33.581Z,19.40
2017-03-15T01:29:39.055Z,22.23
2017-03-15T01:30:45.311Z,20.47
2017-03-15T01:31:50.898Z,19.43
2017-03-15T01:32:55.663Z,18.88
2017-03-15T01:34:02.014Z,17.07
2017-03-15T01:35:07.430Z,17.50
2017-03-15T01:36:12.447Z,22.03
2017-03-15T01:37:17.855Z,19.82
2017-03-15T01:38:22.595Z,20.23
2017-03-15T01:39:27.442Z,18.58
2017-03-15T01:40:33.723Z,15.18
2017-03-15T01:41:39.382Z,19.40
2017-03-15T01:42:44.913Z,21.20
2017-03-15T01:43:50.528Z,20.02
2017-03-15T01:44:55.284Z,21.57
2017-03-15T01:46:01.639Z,20.12
2017-03-15T01:47:07.206Z,19.07
2017-03-15T01:48:11.999Z,21.47
2017-03-15T01:49:16.830Z,21.50
2017-03-15T01:50:22.405Z,20.33
2017-03-15T01:51:28.016Z,20.42
2017-03-15T01:52:33.590Z,23.33
2017-03-15T01:53:39.090Z,24.73
2017-03-15T01:54:43.854Z,24.48
2017-03-15T01:55:48.566Z,25.50
2017-03-15T01:56:53.190Z,23.20
2017-03-15T01:57:58.719Z,23.60
2017-03-15T01:59:03.403Z,23.97
2017-03-15T02:00:09.022Z,23.58
2017-03-15T02:01:15.351Z,23.32
2017-03-15T02:02:20.269Z,22.38
2017-03-15T02:03:25.759Z,26.98
2017-03-15T02:04:30.491Z,28.97
2017-03-15T02:05:36.684Z,24.97
2017-03-15T02:06:41.430Z,27.03
2017-03-15T02:07:47.074Z,27.53
2017-03-15T02:08:52.690Z,27.70
2017-03-15T02:09:58.046Z,27.53
2017-03-15T02:11:02.692Z,24.20
2017-03-15T02:12:08.246Z,23.83
2017-03-15T02:13:14.627Z,26.05
2017-03-15T02:14:19.386Z,22.05
2017-03-15T02:15:24.890Z,26.42
2017-03-15T02:16:31.130Z,25.27
2017-03-15T02:17:36.679Z,23.13
2017-03-15T02:18:41.500Z,26.60
2017-03-15T02:19:46.207Z,32.58
2017-03-15T02:20:51.701Z,26.02
2017-03-15T02:21:57.216Z,26.90
2017-03-15T02:23:03.514Z,26.60
2017-03-15T02:24:08.309Z,31.42
2017-03-15T02:25:12.963Z,28.25
2017-03-15T02:26:18.554Z,29.17
2017-03-15T02:27:23.230Z,29.18
2017-03-15T02:28:27.924Z,25.13
2017-03-15T02:29:34.301Z,28.32
2017-03-15T02:30:39.907Z,22.23
2017-03-15T02:31:47.485Z,24.85
2017-03-15T02:32:52.329Z,20.98
2017-03-15T02:33:57.146Z,20.22
2017-03-15T02:35:02.745Z,17.80
2017-03-15T02:36:09.106Z,16.97
2017-03-15T02:37:14.592Z,15.82
2017-03-15T02:38:20.222Z,15.95
2017-03-15T02:39:24.959Z,18.52
2017-03-15T02:40:30.537Z,16.35
2017-03-15T02:41:35.268Z,19.75
2017-03-15T02:42:39.886Z,19.13
2017-03-15T02:43:45.587Z,19.45
2017-03-15T02:44:51.194Z,19.73
2017-03-15T02:45:56.790Z,22.98
2017-03-15T02:47:02.302Z,17.97
2017-03-15T02:48:08.519Z,23.58
2017-03-15T02:49:13.500Z,25.32
2017-03-15T02:50:19.098Z,22.68
2017-03-15T02:51:23.839Z,21.02
2017-03-15T02:52:30.314Z,25.33
2017-03-15T02:53:35.060Z,27.65
2017-03-15T02:54:40.605Z,26.52
2017-03-15T02:55:45.261Z,24.35
2017-03-15T02:56:50.851Z,29.37
2017-03-15T02:57:56.511Z,27.23
2017-03-15T02:59:01.265Z,23.75
2017-03-15T03:00:06.037Z,24.45
2017-03-15T03:01:10.634Z,24.45
2017-03-15T03:02:15.550Z,26.92
2017-03-15T03:03:21.094Z,25.78
2017-03-15T03:04:26.566Z,23.48
2017-03-15T03:05:31.265Z,28.88
2017-03-15T03:06:36.156Z,26.15
2017-03-15T03:07:41.718Z,25.00
2017-03-15T03:08:47.199Z,24.98
2017-03-15T03:09:51.854Z,26.33
2017-03-15T03:10:56.558Z,24.53
2017-03-15T03:12:01.989Z,24.72
2017-03-15T03:13:07.642Z,22.67
2017-03-15T03:14:13.244Z,29.98
2017-03-15T03:15:18.651Z,26.20
2017-03-15T03:16:23.419Z,28.53
2017-03-15T03:17:28.842Z,29.23
2017-03-15T03:18:33.495Z,28.63
2017-03-15T03:19:39.011Z,34.95
2017-03-15T03:20:43.878Z,31.15
2017-03-15T03:21:49.430Z,29.17
2017-03-15T03:22:55.005Z,29.17
2017-03-15T03:23:59.612Z,27.78
2017-03-15T03:25:05.223Z,28.95
2017-03-15T03:26:10.738Z,34.62
2017-03-15T03:27:16.281Z,34.18
2017-03-15T03:28:21.839Z,33.05
2017-03-15T03:29:26.667Z,30.72
2017-03-15T03:30:32.296Z,36.58
2017-03-15T03:31:37.882Z,33.73
2017-03-15T03:32:43.445Z,36.70
2017-03-15T03:33:48.999Z,37.45
2017-03-15T03:34:53.639Z,48.77
2017-03-15T03:35:59.270Z,37.88
2017-03-15T03:37:05.527Z,41.27
2017-03-15T03:38:10.313Z,37.37
2017-03-15T03:39:16.710Z,37.75
2017-03-15T03:40:21.462Z,42.68
2017-03-15T03:41:27.091Z,46.55
2017-03-15T03:42:32.524Z,40.72
2017-03-15T03:43:37.344Z,37.45
2017-03-15T03:44:42.974Z,39.88
2017-03-15T03:45:48.517Z,38.67
2017-03-15T03:46:53.379Z,38.32
2017-03-15T03:47:58.920Z,39.23
2017-03-15T03:49:05.248Z,40.17
2017-03-15T03:50:10.103Z,41.87
2017-03-15T03:51:14.776Z,35.37
2017-03-15T03:52:21.250Z,34.65
2017-03-15T03:53:26.738Z,37.45
2017-03-15T03:54:32.497Z,34.23
2017-03-15T03:55:37.318Z,36.55
2017-03-15T03:56:42.914Z,35.32
2017-03-15T03:57:48.599Z,33.70
2017-03-15T03:58:53.282Z,33.85
2017-03-15T03:59:58.851Z,36.17
2017-03-15T04:01:03.678Z,37.45
2017-03-15T04:02:09.206Z,27.10
2017-03-15T04:03:15.375Z,25.57
2017-03-15T04:04:20.062Z,30.40
2017-03-15T04:05:25.538Z,27.25
2017-03-15T04:06:31.070Z,27.00
2017-03-15T04:07:35.738Z,31.27
2017-03-15T04:08:41.384Z,32.95
2017-03-15T04:09:46.865Z,36.10
2017-03-15T04:10:53.207Z,37.03
2017-03-15T04:11:58.047Z,31.65
2017-03-15T04:13:03.642Z,28.80
2017-03-15T04:14:08.391Z,32.65
2017-03-15T04:15:13.882Z,29.62
2017-03-15T04:16:19.302Z,29.07
2017-03-15T04:17:24.842Z,28.37
2017-03-15T04:18:29.552Z,32.37
2017-03-15T04:19:34.236Z,31.75
2017-03-15T04:20:40.604Z,29.58
2017-03-15T04:21:52.410Z,30.88
2017-03-15T04:22:57.778Z,31.62
2017-03-15T04:24:03.274Z,31.37
2017-03-15T04:25:08.774Z,30.47
2017-03-15T04:26:13.480Z,29.33
2017-03-15T04:27:18.920Z,30.85
2017-03-15T04:28:30.706Z,29.52
2017-03-15T04:29:35.378Z,30.27
2017-03-15T04:30:41.031Z,26.98
2017-03-15T04:31:46.594Z,26.98
2017-03-15T04:32:52.946Z,31.45
2017-03-15T04:33:57.729Z,30.07
2017-03-15T04:35:04.076Z,28.37
2017-03-15T04:36:08.854Z,25.65
2017-03-15T04:37:14.375Z,27.55
2017-03-15T04:38:19.823Z,28.55
2017-03-15T04:39:25.343Z,30.67
2017-03-15T04:40:30.883Z,30.83
2017-03-15T04:41:36.546Z,33.20
2017-03-15T04:42:41.246Z,28.48
2017-03-15T04:43:45.922Z,28.92
2017-03-15T04:44:51.565Z,26.93
2017-03-15T04:45:56.858Z,31.45
2017-03-15T04:47:02.882Z,30.53
2017-03-15T04:48:08.006Z,28.62
2017-03-15T04:49:13.510Z,29.55
2017-03-15T04:50:19.115Z,30.63
2017-03-15T04:51:24.695Z,32.50
2017-03-15T04:52:30.205Z,28.93
2017-03-15T04:53:35.796Z,29.67
2017-03-15T04:54:42.153Z,33.92
2017-03-15T04:55:47.725Z,29.23
2017-03-15T04:56:53.418Z,32.47
2017-03-15T04:57:58.286Z,36.32
2017-03-15T04:59:04.538Z,37.03
2017-03-15T05:00:10.203Z,32.93
2017-03-15T05:01:14.948Z,33.00
2017-03-15T05:02:21.266Z,35.80
2017-03-15T05:03:26.063Z,30.20
2017-03-15T05:04:32.379Z,33.73
2017-03-15T05:05:37.158Z,36.35
2017-03-15T05:06:41.840Z,35.02
2017-03-15T05:07:47.287Z,32.62
2017-03-15T05:08:52.031Z,32.85
2017-03-15T05:09:57.470Z,31.82
2017-03-15T05:11:02.105Z,33.90
2017-03-15T05:12:06.899Z,45.35
2017-03-15T05:13:12.440Z,38.67
2017-03-15T05:14:17.923Z,35.47
2017-03-15T05:15:23.487Z,40.13
2017-03-15T05:16:29.067Z,34.72
2017-03-15T05:17:33.768Z,35.73
2017-03-15T05:18:39.324Z,41.88
2017-03-15T05:19:45.868Z,40.82
2017-03-15T05:20:52.183Z,40.85
2017-03-15T05:21:57.248Z,39.63
2017-03-15T05:23:02.793Z,39.42
2017-03-15T05:24:16.677Z,39.23
2017-03-15T05:25:22.067Z,40.63
2017-03-15T05:26:27.610Z,41.47
2017-03-15T05:27:32.308Z,39.62
2017-03-15T05:28:37.902Z,46.78
2017-03-15T05:29:44.309Z,40.83
2017-03-15T05:30:49.366Z,39.50
2017-03-15T05:31:55.729Z,39.93
2017-03-15T05:33:01.306Z,39.90
2017-03-15T05:34:06.098Z,42.22
2017-03-15T05:35:10.765Z,40.88
2017-03-15T05:36:17.911Z,42.32
2017-03-15T05:37:22.961Z,39.28
2017-03-15T05:38:28.418Z,41.63
2017-03-15T05:39:34.011Z,42.37
2017-03-15T05:40:39.682Z,42.97
2017-03-15T05:41:44.830Z,45.78
2017-03-15T05:42:50.945Z,41.22
2017-03-15T05:43:56.520Z,47.62
2017-03-15T05:45:02.297Z,43.12
2017-03-15T05:46:07.325Z,42.03
2017-03-15T05:47:13.615Z,45.95
2017-03-15T05:48:19.299Z,46.02
2017-03-15T05:49:25.001Z,43.13
2017-03-15T05:50:30.085Z,37.35
2017-03-15T05:51:36.479Z,37.45
2017-03-15T05:52:41.313Z,44.85
2017-03-15T05:53:46.869Z,46.42
2017-03-15T05:54:52.799Z,41.57
2017-03-15T05:55:58.386Z,46.67
2017-03-15T05:57:04.758Z,43.90
2017-03-15T05:58:11.706Z,43.50
2017-03-15T05:59:17.296Z,46.38
2017-03-15T06:00:22.949Z,42.68
2017-03-15T06:01:28.581Z,41.80
2017-03-15T06:02:34.627Z,40.58
2017-03-15T06:03:40.783Z,40.53
2017-03-15T06:04:45.662Z,40.53
2017-03-15T06:05:50.699Z,49.12
2017-03-15T06:06:55.986Z,58.32
2017-03-15T06:08:00.641Z,61.15
2017-03-15T06:09:08.193Z,78.97
2017-03-15T06:10:13.734Z,92.13
2017-03-15T06:11:19.529Z,65.03
2017-03-15T06:12:24.184Z,62.75
2017-03-15T06:13:31.525Z,45.57
2017-03-15T06:14:37.558Z,39.47
2017-03-15T06:15:42.232Z,46.42
2017-03-15T06:16:49.802Z,46.50
2017-03-15T06:17:54.558Z,45.10
2017-03-15T06:18:59.987Z,49.45
2017-03-15T06:20:06.645Z,46.58
2017-03-15T06:21:12.198Z,49.12
2017-03-15T06:22:16.974Z,41.52
2017-03-15T06:23:22.539Z,45.43
2017-03-15T06:24:28.210Z,40.83
2017-03-15T06:25:33.808Z,41.18
2017-03-15T06:26:38.800Z,41.50
2017-03-15T06:27:45.122Z,46.57
2017-03-15T06:28:50.945Z,39.72
2017-03-15T06:29:56.518Z,42.08
2017-03-15T06:31:02.113Z,40.53
2017-03-15T06:32:07.841Z,44.70
2017-03-15T06:33:13.603Z,47.07
2017-03-15T06:34:18.506Z,45.15
2017-03-15T06:35:23.353Z,45.57
2017-03-15T06:36:28.957Z,43.25
2017-03-15T06:37:33.705Z,44.42
2017-03-15T06:38:39.338Z,40.37
2017-03-15T06:39:45.713Z,46.02
2017-03-15T06:40:50.474Z,39.73
2017-03-15T06:41:56.856Z,45.80
2017-03-15T06:43:02.493Z,40.83
2017-03-15T06:44:07.213Z,41.72
2017-03-15T06:45:12.056Z,42.03
2017-03-15T06:46:18.428Z,40.65
2017-03-15T06:47:23.357Z,47.33
2017-03-15T06:48:28.842Z,45.72
2017-03-15T06:49:33.613Z,48.77
2017-03-15T06:50:39.102Z,49.60
2017-03-15T06:51:44.737Z,48.77
2017-03-15T06:52:50.626Z,47.55
2017-03-15T06:53:56.115Z,41.63
2017-03-15T06:55:01.682Z,41.13
2017-03-15T06:56:07.202Z,44.38
2017-03-15T06:57:12.714Z,44.72
2017-03-15T06:58:18.342Z,51.32
2017-03-15T06:59:23.201Z,49.37
2017-03-15T07:00:28.857Z,49.40
2017-03-15T07:01:34.350Z,60.18
2017-03-15T07:02:43.208Z,57.25
2017-03-15T07:03:48.065Z,52.32
2017-03-15T07:04:53.545Z,55.95
2017-03-15T07:06:08.005Z,56.02
2017-03-15T07:07:14.957Z,50.20
2017-03-15T07:08:19.981Z,51.57
2017-03-15T07:09:25.641Z,56.17
2017-03-15T07:10:31.982Z,58.95
2017-03-15T07:11:36.910Z,54.68
2017-03-15T07:12:42.534Z,47.63
2017-03-15T07:13:48.986Z,45.17
2017-03-15T07:14:54.586Z,49.85
2017-03-15T07:15:59.325Z,47.53
2017-03-15T07:17:04.093Z,47.68
2017-03-15T07:18:08.717Z,49.02
2017-03-15T07:19:14.245Z,48.82
2017-03-15T07:20:20.681Z,49.10
2017-03-15T07:21:26.214Z,49.87
2017-03-15T07:22:31.077Z,53.27
2017-03-15T07:23:36.647Z,54.90
2017-03-15T07:24:41.422Z,46.70
2017-03-15T07:25:47.870Z,50.37
2017-03-15T07:26:53.489Z,50.93
2017-03-15T07:27:59.057Z,51.93
2017-03-15T07:29:03.916Z,51.75
2017-03-15T07:30:09.373Z,51.43
2017-03-15T07:31:14.849Z,49.95
2017-03-15T07:32:20.526Z,50.43
2017-03-15T07:33:26.124Z,57.40
2017-03-15T07:34:31.790Z,50.80
2017-03-15T07:35:36.655Z,49.20
2017-03-15T07:36:43.158Z,49.53
2017-03-15T07:37:48.657Z,53.42
2017-03-15T07:38:54.284Z,53.65
2017-03-15T07:39:59.080Z,53.05
2017-03-15T07:41:04.608Z,52.87
2017-03-15T07:42:09.432Z,54.87
2017-03-15T07:43:15.885Z,51.28
2017-03-15T07:44:20.638Z,52.52
2017-03-15T07:45:27.086Z,51.82
2017-03-15T07:46:32.634Z,52.30
2017-03-15T07:47:37.583Z,50.25
2017-03-15T07:48:42.258Z,56.87
2017-03-15T07:49:47.064Z,58.85
2017-03-15T07:50:52.617Z,59.50
2017-03-15T07:51:57.526Z,56.42
2017-03-15T07:53:02.268Z,57.07
2017-03-15T07:54:08.781Z,58.92
2017-03-15T07:55:14.401Z,53.75
2017-03-15T07:56:19.712Z,55.95
2017-03-15T07:57:24.652Z,58.50
2017-03-15T07:58:30.369Z,59.30
2017-03-15T07:59:36.542Z,58.05
2017-03-15T08:00:42.171Z,52.13
2017-03-15T08:01:46.953Z,49.67
2017-03-15T08:02:51.752Z,56.22
2017-03-15T08:03:57.250Z,63.88
2017-03-15T08:05:02.874Z,57.03
2017-03-15T08:06:08.546Z,56.57
2017-03-15T08:07:13.401Z,51.82
2017-03-15T08:08:18.078Z,51.73
2017-03-15T08:09:22.905Z,52.88
2017-03-15T08:10:29.220Z,54.08
2017-03-15T08:11:34.076Z,49.32
2017-03-15T08:13:55.417Z,54.28
2017-03-15T08:15:00.109Z,53.32
2017-03-15T08:16:05.545Z,53.82
2017-03-15T08:17:11.272Z,52.83
2017-03-15T08:18:17.686Z,50.03
2017-03-15T08:19:23.439Z,50.18
2017-03-15T08:20:30.265Z,53.83
2017-03-15T08:21:35.040Z,55.77
2017-03-15T08:22:46.022Z,51.20
2017-03-15T08:23:51.250Z,51.82
2017-03-15T08:24:56.581Z,50.87
2017-03-15T08:26:02.362Z,53.93
2017-03-15T08:27:07.943Z,48.50
2017-03-15T08:28:12.887Z,47.47
2017-03-15T08:29:18.405Z,45.12
2017-03-15T08:30:23.920Z,47.88
2017-03-15T08:31:29.616Z,44.17
2017-03-15T08:32:35.333Z,44.12
2017-03-15T08:33:40.117Z,45.78
2017-03-15T08:34:44.959Z,51.30
2017-03-15T08:35:49.787Z,48.27
2017-03-15T08:36:56.301Z,51.27
2017-03-15T08:38:01.117Z,55.12
2017-03-15T08:39:08.026Z,59.10
2017-03-15T08:40:12.823Z,56.52
2017-03-15T08:41:18.560Z,56.60
2017-03-15T08:42:25.479Z,52.67
2017-03-15T08:43:31.825Z,56.40
2017-03-15T08:44:36.814Z,54.10
2017-03-15T08:45:42.553Z,56.70
2017-03-15T08:46:48.080Z,59.97
2017-03-15T08:47:52.912Z,56.67
2017-03-15T08:48:58.457Z,61.32
2017-03-15T08:50:03.368Z,58.22
2017-03-15T08:51:08.052Z,60.30
2017-03-15T08:52:12.754Z,60.92
2017-03-15T08:53:17.753Z,52.85
2017-03-15T08:54:22.513Z,57.65
2017-03-15T08:55:28.901Z,63.32
2017-03-15T08:56:34.658Z,63.57
2017-03-15T08:57:40.384Z,58.72
2017-03-15T08:58:45.965Z,56.60
2017-03-15T08:59:50.677Z,63.95
2017-03-15T09:00:56.185Z,57.78
2017-03-15T09:02:01.066Z,60.15
2017-03-15T09:03:07.431Z,60.48
2017-03-15T09:04:13.357Z,60.08
2017-03-15T09:05:18.095Z,61.47
2017-03-15T09:06:23.541Z,54.45
2017-03-15T09:07:29.216Z,57.92
2017-03-15T09:08:34.938Z,59.87
2017-03-15T09:09:40.646Z,53.57
2017-03-15T09:10:46.489Z,58.38
2017-03-15T09:11:51.192Z,57.28
2017-03-15T09:12:56.654Z,56.32
2017-03-15T09:14:02.408Z,57.25
2017-03-15T09:15:08.178Z,59.13
2017-03-15T09:16:13.057Z,52.68
2017-03-15T09:17:18.793Z,56.10
2017-03-15T09:18:23.420Z,53.73
2017-03-15T09:19:28.997Z,52.35
2017-03-15T09:20:35.710Z,54.32
2017-03-15T09:21:40.464Z,57.03
2017-03-15T09:22:46.073Z,53.92
2017-03-15T09:23:52.098Z,56.92
2017-03-15T09:24:58.263Z,58.93
2017-03-15T09:26:03.042Z,53.80
2017-03-15T09:27:08.574Z,57.48
2017-03-15T09:28:14.888Z,55.27
2017-03-15T09:29:19.697Z,53.93
2017-03-15T09:30:24.409Z,55.08
2017-03-15T09:31:30.074Z,58.82
2017-03-15T09:32:34.926Z,54.13
2017-03-15T09:33:40.492Z,58.63
2017-03-15T09:34:45.957Z,53.30
2017-03-15T09:35:51.472Z,60.63
2017-03-15T09:36:57.173Z,58.18
2017-03-15T09:38:02.148Z,57.57
2017-03-15T09:39:07.690Z,60.18
2017-03-15T09:40:12.555Z,57.98
2017-03-15T09:41:18.149Z,61.15
2017-03-15T09:42:23.750Z,60.43
2017-03-15T09:43:28.834Z,60.07
2017-03-15T09:44:33.574Z,57.15
2017-03-15T09:45:38.355Z,59.50
2017-03-15T09:46:43.862Z,54.90
2017-03-15T09:47:49.602Z,60.48
2017-03-15T09:48:55.269Z,55.27
2017-03-15T09:50:00.260Z,60.12
2017-03-15T09:51:04.997Z,58.35
2017-03-15T09:52:10.485Z,59.08
2017-03-15T09:53:16.156Z,61.30
2017-03-15T09:54:20.943Z,59.68
2017-03-15T09:55:25.720Z,66.27
2017-03-15T09:56:30.674Z,58.18
2017-03-15T09:57:36.225Z,63.02
2017-03-15T09:58:40.944Z,62.37
2017-03-15T09:59:46.364Z,59.83
2017-03-15T10:00:51.968Z,60.83
2017-03-15T10:01:56.765Z,59.67
2017-03-15T10:03:03.142Z,64.98
2017-03-15T10:04:08.110Z,58.48
2017-03-15T10:05:13.537Z,57.67
2017-03-15T10:06:19.381Z,55.97
2017-03-15T10:07:24.233Z,57.00
2017-03-15T10:08:28.909Z,60.47
2017-03-15T10:09:33.728Z,59.35
2017-03-15T10:10:39.308Z,62.25
2017-03-15T10:11:44.366Z,54.02
2017-03-15T10:12:50.042Z,61.68
2017-03-15T10:13:55.606Z,55.47
2017-03-15T10:15:00.380Z,50.43
2017-03-15T10:16:05.460Z,55.45
2017-03-15T10:17:10.757Z,55.63
2017-03-15T10:18:16.676Z,53.58
2017-03-15T10:19:22.182Z,53.52
2017-03-15T10:20:29.585Z,60.12
2017-03-15T10:21:35.141Z,53.88
2017-03-15T10:22:39.905Z,58.92
2017-03-15T10:23:45.465Z,58.07
2017-03-15T10:24:50.320Z,55.33
2017-03-15T10:25:55.905Z,58.17
2017-03-15T10:27:01.553Z,55.00
2017-03-15T10:28:07.193Z,54.22
2017-03-15T10:29:12.140Z,56.43
2017-03-15T10:30:17.533Z,51.80
2017-03-15T10:31:22.388Z,57.00
2017-03-15T10:32:27.225Z,54.45
2017-03-15T10:33:32.737Z,52.95
2017-03-15T10:34:37.673Z,52.37
2017-03-15T10:35:43.250Z,56.37
2017-03-15T10:36:49.474Z,54.58
2017-03-15T10:37:54.457Z,53.18
2017-03-15T10:39:34.961Z,50.13
2017-03-15T10:40:40.856Z,49.60
2017-03-15T10:41:46.144Z,53.23
2017-03-15T10:42:51.688Z,46.48
2017-03-15T10:43:56.358Z,54.38
2017-03-15T10:45:01.137Z,50.33
2017-03-15T10:46:06.754Z,50.90
2017-03-15T10:47:13.129Z,50.70
2017-03-15T10:48:18.768Z,47.62
2017-03-15T10:49:23.556Z,51.25
2017-03-15T10:50:29.082Z,46.75
2017-03-15T10:51:33.770Z,54.87
2017-03-15T10:52:40.173Z,49.50
2017-03-15T10:53:46.764Z,51.02
2017-03-15T10:54:52.451Z,48.82
2017-03-15T10:55:57.277Z,48.83
2017-03-15T10:57:02.824Z,52.42
2017-03-15T10:58:07.613Z,47.68
2017-03-15T10:59:12.280Z,49.08
2017-03-15T11:00:17.753Z,49.95
2017-03-15T11:01:22.536Z,49.65
2017-03-15T11:02:28.089Z,44.70
2017-03-15T11:03:33.702Z,45.33
2017-03-15T11:04:39.393Z,41.45
2017-03-15T11:05:44.909Z,44.83
2017-03-15T11:06:49.566Z,46.73
2017-03-15T11:07:54.996Z,45.67
2017-03-15T11:09:00.157Z,49.68
2017-03-15T11:10:06.236Z,41.58
2017-03-15T11:11:10.961Z,40.60
2017-03-15T11:12:17.308Z,42.33
2017-03-15T11:13:22.069Z,42.02
2017-03-15T11:14:27.793Z,43.65
2017-03-15T11:15:33.433Z,46.18
2017-03-15T11:16:38.300Z,43.38
2017-03-15T11:17:43.073Z,41.17
2017-03-15T11:18:49.420Z,39.20
2017-03-15T11:19:54.993Z,42.02
2017-03-15T11:20:59.886Z,40.77
2017-03-15T11:22:05.437Z,40.33
2017-03-15T11:23:10.888Z,45.42
2017-03-15T11:24:15.701Z,44.53
2017-03-15T11:25:20.409Z,43.67
2017-03-15T11:26:25.261Z,42.88
2017-03-15T11:27:30.013Z,40.42
2017-03-15T11:28:35.705Z,43.98
2017-03-15T11:29:41.341Z,41.18
2017-03-15T11:30:46.761Z,43.92
2017-03-15T11:31:51.574Z,43.07
2017-03-15T11:32:57.916Z,43.70
2017-03-15T11:34:03.189Z,43.63
2017-03-15T11:35:08.541Z,40.78
2017-03-15T11:36:13.144Z,42.97
2017-03-15T11:37:20.617Z,42.48
2017-03-15T11:38:26.339Z,46.70
2017-03-15T11:39:31.848Z,41.95
2017-03-15T11:40:37.493Z,46.43
2017-03-15T11:41:43.245Z,46.00
2017-03-15T11:42:51.005Z,44.38
2017-03-15T11:43:56.589Z,40.87
2017-03-15T11:45:02.958Z,42.52
2017-03-15T11:46:07.733Z,41.35
2017-03-15T11:47:13.308Z,43.72
2017-03-15T11:48:19.068Z,40.68
2017-03-15T11:49:24.093Z,41.22
2017-03-15T11:50:30.261Z,44.45
2017-03-15T11:51:35.210Z,42.47
2017-03-15T11:52:40.845Z,42.62
2017-03-15T11:53:46.562Z,41.68
2017-03-15T11:54:52.015Z,40.67
2017-03-15T11:55:56.807Z,41.25
2017-03-15T11:57:03.228Z,41.77
2017-03-15T11:58:07.941Z,41.65
2017-03-15T11:59:12.748Z,46.13
2017-03-15T12:00:19.117Z,40.42
2017-03-15T12:01:24.779Z,42.55
2017-03-15T12:02:30.473Z,39.27
2017-03-15T12:03:36.209Z,37.35
2017-03-15T12:04:41.132Z,38.97
2017-03-15T12:05:47.488Z,42.15
2017-03-15T12:06:53.805Z,41.38
2017-03-15T12:07:59.410Z,35.77
2017-03-15T12:09:04.436Z,42.95
2017-03-15T12:10:10.721Z,38.95
2017-03-15T12:11:15.464Z,40.27
2017-03-15T12:12:20.340Z,42.27
2017-03-15T12:13:25.896Z,44.17
2017-03-15T12:14:32.191Z,41.18
2017-03-15T12:15:37.505Z,40.53
2017-03-15T12:16:43.069Z,38.12
2017-03-15T12:17:48.502Z,38.15
2017-03-15T12:18:53.865Z,43.72
2017-03-15T12:20:02.337Z,40.02
2017-03-15T12:21:08.244Z,39.82
2017-03-15T12:22:12.907Z,44.92
2017-03-15T12:23:18.364Z,40.80
2017-03-15T12:24:23.216Z,41.85
2017-03-15T12:25:27.864Z,43.27
2017-03-15T12:26:33.341Z,39.42
2017-03-15T12:27:38.936Z,39.33
2017-03-15T12:28:44.697Z,43.62
2017-03-15T12:29:50.312Z,42.22
2017-03-15T12:30:55.948Z,40.43
2017-03-15T12:32:01.637Z,35.73
2017-03-15T12:33:06.585Z,33.22
2017-03-15T12:34:12.054Z,38.18
2017-03-15T12:35:16.916Z,36.27
2017-03-15T12:36:22.673Z,35.32
2017-03-15T12:37:28.284Z,34.07
2017-03-15T12:38:33.065Z,28.27
2017-03-15T12:39:38.489Z,26.85
2017-03-15T12:40:44.073Z,28.53
2017-03-15T12:41:49.567Z,26.68
2017-03-15T12:42:55.253Z,30.50
2017-03-15T12:44:00.125Z,30.73
2017-03-15T12:45:06.433Z,33.18
2017-03-15T12:46:11.270Z,28.42
2017-03-15T12:47:17.377Z,24.88
2017-03-15T12:48:22.832Z,31.67
2017-03-15T12:49:29.253Z,33.05
2017-03-15T12:50:36.377Z,31.98
2017-03-15T12:51:41.764Z,36.08
2017-03-15T12:52:47.128Z,40.82
2017-03-15T12:53:52.048Z,32.90
2017-03-15T12:54:59.917Z,31.67
2017-03-15T12:56:05.993Z,36.75
2017-03-15T12:57:11.025Z,36.97
2017-03-15T12:58:16.601Z,35.00
2017-03-15T12:59:22.177Z,34.05
2017-03-15T13:00:27.888Z,38.08
2017-03-15T13:01:33.440Z,37.87
2017-03-15T13:02:39.110Z,35.72
2017-03-15T13:03:44.093Z,37.58
2017-03-15T13:04:50.621Z,38.70
2017-03-15T13:05:55.461Z,29.52
2017-03-15T13:07:01.149Z,32.05
2017-03-15T13:08:06.788Z,30.63
2017-03-15T13:09:12.336Z,32.12
2017-03-15T13:10:17.328Z,31.08
2017-03-15T13:11:22.905Z,33.95
2017-03-15T13:12:27.561Z,35.00
2017-03-15T13:13:33.076Z,32.95
2017-03-15T13:14:37.799Z,32.72
2017-03-15T13:15:42.549Z,32.00
2017-03-15T13:16:48.889Z,30.10
2017-03-15T13:17:53.668Z,36.97
2017-03-15T13:19:01.230Z,31.90
2017-03-15T13:20:06.761Z,28.40
2017-03-15T13:21:14.116Z,30.25
2017-03-15T13:22:18.973Z,30.75
2017-03-15T13:23:23.620Z,28.87
2017-03-15T13:24:29.200Z,33.65
2017-03-15T13:25:34.717Z,28.82
2017-03-15T13:26:40.285Z,34.90
2017-03-15T13:27:45.914Z,33.23
2017-03-15T13:28:51.444Z,33.37
2017-03-15T13:29:56.285Z,33.68
2017-03-15T13:31:02.590Z,29.65
2017-03-15T13:32:07.728Z,26.25
2017-03-15T13:33:13.140Z,30.65
2017-03-15T13:34:19.525Z,35.07
2017-03-15T13:35:25.100Z,33.07
2017-03-15T13:36:30.590Z,33.77
2017-03-15T13:37:36.280Z,31.33
2017-03-15T13:38:41.393Z,34.00
2017-03-15T13:39:47.412Z,31.75
2017-03-15T13:40:53.132Z,39.82
2017-03-15T13:41:57.861Z,32.50
2017-03-15T13:43:03.431Z,35.08
2017-03-15T13:44:08.404Z,29.47
2017-03-15T13:45:13.846Z,34.23
2017-03-15T13:46:19.618Z,31.38
2017-03-15T13:47:24.593Z,34.53
2017-03-15T13:48:29.288Z,28.77
2017-03-15T13:49:35.656Z,30.55
2017-03-15T13:50:40.502Z,30.67
2017-03-15T13:51:45.201Z,29.92
2017-03-15T13:52:51.688Z,31.88
2017-03-15T13:53:56.449Z,31.35
2017-03-15T13:55:02.773Z,29.18
2017-03-15T13:56:08.460Z,25.32
2017-03-15T13:57:13.372Z,29.22
2017-03-15T13:58:18.041Z,26.35
2017-03-15T13:59:23.670Z,27.58
2017-03-15T14:00:28.376Z,28.40
2017-03-15T14:01:33.848Z,28.37
2017-03-15T14:02:38.657Z,31.83
2017-03-15T14:03:44.176Z,27.45
2017-03-15T14:04:49.754Z,29.27